Time;durP1;ratioP1;P1;durP2;ratioP2;P2;SDS_P1;SDS_P2;PMS_P1;PMS_P2;Temp;Humidity;BMP_temperature;BMP_pressure;BME280_temperature;BME280_humidity;BME280_pressure;Samples;Min_cycle;Max_cycle;Signal;HPM_P1;HPM_P2
2023/12/13 00:00:38;;;;;;;1.20;0.70;;;;;;;7.95;100.00;96757.94;5054495;28;20227;-78
2023/12/13 00:03:06;;;;;;;1.30;0.63;;;;;;;7.94;100.00;96757.09;5053663;28;20244;-78
2023/12/13 00:05:33;;;;;;;1.17;0.90;;;;;;;7.93;100.00;96755.41;5053496;28;20216;-78
2023/12/13 00:07:59;;;;;;;1.60;0.53;;;;;;;7.88;100.00;96747.06;5054316;28;20217;-78
2023/12/13 00:10:26;;;;;;;0.60;0.50;;;;;;;7.83;100.00;96751.03;5054383;28;20271;-78
2023/12/13 00:12:52;;;;;;;1.70;0.70;;;;;;;7.75;100.00;96750.78;5053996;28;20232;-78
2023/12/13 00:15:19;;;;;;;1.37;0.60;;;;;;;7.62;100.00;96748.31;5054115;28;20213;-78
2023/12/13 00:17:45;;;;;;;0.87;0.70;;;;;;;7.48;100.00;96742.47;5054172;28;20318;-78
2023/12/13 00:20:14;;;;;;;0.63;0.63;;;;;;;7.35;100.00;96739.13;5054432;28;20214;-78
2023/12/13 00:22:40;;;;;;;0.93;0.70;;;;;;;7.18;100.00;96733.50;5054789;28;20228;-78
2023/12/13 00:25:08;;;;;;;2.60;0.80;;;;;;;7.06;100.00;96724.78;5053379;28;20246;-78
2023/12/13 00:27:34;;;;;;;1.77;0.80;;;;;;;6.95;100.00;96732.66;5053063;28;20269;-78
2023/12/13 00:30:01;;;;;;;0.93;0.60;;;;;;;6.83;100.00;96725.72;5053569;28;20704;-78
2023/12/13 00:32:27;;;;;;;0.73;0.73;;;;;;;6.74;100.00;96729.06;5053080;28;20241;-78
2023/12/13 00:34:54;;;;;;;0.73;0.60;;;;;;;6.63;100.00;96723.78;5052468;28;20243;-78
2023/12/13 00:37:23;;;;;;;1.60;0.90;;;;;;;6.57;100.00;96724.25;5052699;28;20204;-78
2023/12/13 00:39:49;;;;;;;1.23;0.80;;;;;;;6.51;100.00;96722.09;5053557;28;20484;-78
2023/12/13 00:42:16;;;;;;;1.33;0.60;;;;;;;6.52;100.00;96715.03;5056064;28;20232;-79
2023/12/13 00:44:42;;;;;;;0.90;0.70;;;;;;;6.53;100.00;96714.91;5055911;28;20212;-78
2023/12/13 00:47:09;;;;;;;2.63;0.87;;;;;;;6.53;100.00;96717.53;5056220;28;20231;-77
2023/12/13 00:49:36;;;;;;;0.60;0.60;;;;;;;6.50;100.00;96707.28;5056249;28;20203;-78
2023/12/13 00:52:03;;;;;;;2.03;0.80;;;;;;;6.53;100.00;96709.66;5056584;28;20282;-78
2023/12/13 00:54:31;;;;;;;1.47;0.70;;;;;;;6.56;100.00;96703.34;5056577;28;20211;-79
2023/12/13 00:56:58;;;;;;;0.97;0.63;;;;;;;6.61;100.00;96699.44;5055909;28;20210;-77
2023/12/13 00:59:24;;;;;;;1.20;0.70;;;;;;;6.73;100.00;96705.53;5055326;28;20207;-80
2023/12/13 01:01:51;;;;;;;1.13;0.70;;;;;;;6.85;100.00;96699.34;5055462;28;20228;-77
2023/12/13 01:04:17;;;;;;;0.80;0.70;;;;;;;6.95;100.00;96706.41;5056390;28;20201;-78
2023/12/13 01:06:44;;;;;;;2.50;0.90;;;;;;;7.04;100.00;96710.09;5056902;28;20228;-78
2023/12/13 01:09:10;;;;;;;0.80;0.70;;;;;;;7.09;100.00;96705.34;5056047;28;20273;-78
2023/12/13 01:11:38;;;;;;;0.93;0.63;;;;;;;7.12;100.00;96698.03;5055272;28;20224;-77
2023/12/13 01:14:04;;;;;;;0.77;0.60;;;;;;;7.03;100.00;96713.69;5055010;28;20208;-77
2023/12/13 01:16:31;;;;;;;2.10;0.73;;;;;;;6.90;100.00;96713.78;5055263;28;20216;-80
2023/12/13 01:18:57;;;;;;;1.00;0.90;;;;;;;6.77;100.00;96714.88;5056442;28;20232;-79
2023/12/13 01:21:24;;;;;;;1.03;0.70;;;;;;;6.72;100.00;96704.69;5055798;28;20228;-79
2023/12/13 01:23:50;;;;;;;1.17;0.60;;;;;;;6.76;100.00;96703.53;5055936;28;20204;-78
2023/12/13 01:26:17;;;;;;;1.80;0.87;;;;;;;6.84;100.00;96702.94;5057474;28;20228;-78
2023/12/13 01:28:45;;;;;;;1.80;0.77;;;;;;;6.93;100.00;96708.31;5057710;28;20319;-78
2023/12/13 01:31:11;;;;;;;0.80;0.60;;;;;;;7.00;100.00;96693.75;5056621;28;20227;-78
2023/12/13 01:33:38;;;;;;;1.47;0.80;;;;;;;7.08;100.00;96699.22;5056629;28;20531;-79
2023/12/13 01:36:05;;;;;;;1.80;1.03;;;;;;;7.13;100.00;96698.88;5057096;28;20573;-78
2023/12/13 01:38:31;;;;;;;2.77;0.80;;;;;;;7.17;100.00;96695.91;5056798;28;20585;-79
2023/12/13 01:40:58;;;;;;;2.00;0.83;;;;;;;7.21;100.00;96686.81;5056745;28;20309;-79
2023/12/13 01:43:24;;;;;;;2.13;0.80;;;;;;;7.22;100.00;96685.03;5056055;28;20207;-79
2023/12/13 01:45:57;;;;;;;1.83;0.70;;;;;;;7.25;100.00;96693.50;5055559;28;20210;-80
2023/12/13 01:48:25;;;;;;;1.80;0.50;;;;;;;7.29;100.00;96689.69;5056843;28;20220;-78
2023/12/13 01:50:53;;;;;;;1.33;0.70;;;;;;;7.30;100.00;96693.97;5055783;28;20240;-78
2023/12/13 01:53:19;;;;;;;0.90;0.60;;;;;;;7.28;100.00;96693.28;5055289;28;20208;-78
2023/12/13 01:55:47;;;;;;;1.40;0.87;;;;;;;7.28;100.00;96688.84;5055527;28;20866;-79
2023/12/13 01:58:15;;;;;;;1.80;0.80;;;;;;;7.28;100.00;96690.66;5055459;28;20231;-79
2023/12/13 02:00:42;;;;;;;1.37;0.90;;;;;;;7.25;100.00;96683.00;5055935;28;20215;-79
2023/12/13 02:03:11;;;;;;;0.93;0.93;;;;;;;7.26;100.00;96683.84;5056010;28;20212;-79
2023/12/13 02:05:39;;;;;;;0.70;0.60;;;;;;;7.26;100.00;96687.28;5055929;28;20204;-78
2023/12/13 02:08:05;;;;;;;1.83;0.77;;;;;;;7.29;100.00;96680.00;5055851;28;20229;-78
2023/12/13 02:10:32;;;;;;;0.73;0.60;;;;;;;7.34;100.00;96690.16;5055776;28;20208;-80
2023/12/13 02:12:59;;;;;;;1.60;0.70;;;;;;;7.31;100.00;96679.88;5056135;28;20268;-78
2023/12/13 02:15:26;;;;;;;1.83;0.80;;;;;;;7.33;100.00;96680.59;5055584;28;20593;-78
2023/12/13 02:17:53;;;;;;;1.30;0.70;;;;;;;7.32;100.00;96681.53;5055838;28;20208;-78
2023/12/13 02:20:21;;;;;;;2.57;0.97;;;;;;;7.28;100.00;96676.66;5055656;28;20210;-78
2023/12/13 02:22:49;;;;;;;2.53;0.90;;;;;;;7.22;100.00;96683.25;5055397;28;20228;-77
2023/12/13 02:25:20;;;;;;;0.87;0.60;;;;;;;7.23;100.00;96682.28;5065135;28;20223;-78
2023/12/13 02:27:47;;;;;;;1.47;0.60;;;;;;;7.19;100.00;96678.22;5056108;28;20235;-78
2023/12/13 02:30:13;;;;;;;2.60;0.80;;;;;;;7.20;100.00;96672.00;5057770;28;20211;-78
2023/12/13 02:32:40;;;;;;;2.93;0.80;;;;;;;7.22;100.00;96667.47;5071884;28;20232;-78
2023/12/13 02:35:07;;;;;;;0.80;0.57;;;;;;;7.18;100.00;96666.03;5071794;28;20204;-77
2023/12/13 02:37:33;;;;;;;2.60;0.60;;;;;;;7.15;100.00;96662.81;5069743;28;20204;-78
2023/12/13 02:40:03;;;;;;;0.83;0.50;;;;;;;7.16;100.00;96667.13;5067361;28;20280;-78
2023/12/13 02:42:29;;;;;;;1.27;0.50;;;;;;;7.12;100.00;96670.94;5056736;28;20630;-77
2023/12/13 02:44:56;;;;;;;1.17;0.83;;;;;;;7.12;100.00;96663.91;5054531;28;20265;-77
2023/12/13 02:47:25;;;;;;;2.00;0.70;;;;;;;7.14;100.00;96674.28;5054586;28;20231;-78
2023/12/13 02:49:51;;;;;;;3.10;0.80;;;;;;;7.13;100.00;96676.06;5054611;28;20212;-78
2023/12/13 02:52:18;;;;;;;1.03;0.63;;;;;;;7.17;100.00;96674.88;5054493;28;20228;-78
2023/12/13 02:54:45;;;;;;;2.53;0.77;;;;;;;7.10;100.00;96692.09;5053671;28;20364;-79
2023/12/13 02:57:13;;;;;;;2.43;0.60;;;;;;;7.08;100.00;96690.53;5053258;28;20206;-79
2023/12/13 02:59:39;;;;;;;1.27;0.60;;;;;;;7.02;100.00;96681.31;5053125;28;20215;-79
2023/12/13 03:02:06;;;;;;;0.97;0.60;;;;;;;7.04;100.00;96674.19;5052753;28;20738;-79
2023/12/13 03:04:32;;;;;;;4.27;0.70;;;;;;;7.07;100.00;96673.94;5051980;28;20212;-77
2023/12/13 03:06:58;;;;;;;0.70;0.70;;;;;;;7.13;100.00;96673.44;5053231;28;20239;-79
2023/12/13 03:09:25;;;;;;;1.27;0.80;;;;;;;7.15;100.00;96682.03;5053953;28;20307;-79
2023/12/13 03:11:51;;;;;;;0.53;0.53;;;;;;;7.17;100.00;96679.28;5053873;28;20238;-79
2023/12/13 03:14:19;;;;;;;0.97;0.70;;;;;;;7.20;100.00;96690.38;5053916;28;20219;-78
2023/12/13 03:16:46;;;;;;;1.40;0.50;;;;;;;7.23;100.00;96705.94;5053422;28;20701;-79
2023/12/13 03:19:12;;;;;;;0.90;0.63;;;;;;;7.28;100.00;96699.34;5053280;28;20204;-78
2023/12/13 03:21:39;;;;;;;2.23;1.10;;;;;;;7.29;100.00;96700.19;5053178;28;20231;-78
2023/12/13 03:24:05;;;;;;;1.77;0.90;;;;;;;7.25;100.00;96693.50;5054068;28;20214;-78
2023/12/13 03:26:32;;;;;;;2.33;0.90;;;;;;;7.33;100.00;96688.47;5053681;28;20215;-78
2023/12/13 03:28:58;;;;;;;2.07;0.80;;;;;;;7.38;100.00;96688.94;5053739;28;20212;-78
2023/12/13 03:31:26;;;;;;;1.07;0.90;;;;;;;7.30;100.00;96681.66;5053595;28;20231;-78
2023/12/13 03:33:54;;;;;;;1.93;0.90;;;;;;;7.29;100.00;96679.19;5053369;28;20223;-78
2023/12/13 03:36:21;;;;;;;1.37;0.70;;;;;;;7.28;100.00;96671.41;5052955;28;20211;-78
2023/12/13 03:38:48;;;;;;;1.47;0.90;;;;;;;7.28;100.00;96667.00;5053740;28;20208;-78
2023/12/13 03:41:14;;;;;;;1.10;0.80;;;;;;;7.29;100.00;96668.66;5054414;28;20237;-78
2023/12/13 03:43:41;;;;;;;1.90;1.13;;;;;;;7.28;100.00;96659.13;5054208;28;20207;-79
2023/12/13 03:46:07;;;;;;;1.90;0.97;;;;;;;7.29;100.00;96645.00;5053383;28;20678;-78
2023/12/13 03:48:35;;;;;;;0.97;0.63;;;;;;;7.29;100.00;96653.72;5053625;28;20327;-78
2023/12/13 03:51:02;;;;;;;1.00;0.90;;;;;;;7.24;100.00;96658.50;5054123;28;20228;-78
2023/12/13 03:53:29;;;;;;;1.60;0.50;;;;;;;7.18;100.00;96651.09;5053611;28;20281;-78
2023/12/13 03:55:55;;;;;;;0.87;0.70;;;;;;;7.06;100.00;96651.25;5054083;28;20216;-79
2023/12/13 03:58:22;;;;;;;1.47;0.87;;;;;;;6.96;100.00;96639.78;5054669;28;20210;-79
2023/12/13 04:00:48;;;;;;;0.67;0.67;;;;;;;6.88;100.00;96631.69;5053859;28;20212;-79
2023/12/13 04:03:15;;;;;;;3.50;0.70;;;;;;;6.85;100.00;96634.53;5054083;28;20216;-78
2023/12/13 04:05:43;;;;;;;0.80;0.60;;;;;;;6.78;100.00;96630.72;5054429;28;20216;-78
2023/12/13 04:08:09;;;;;;;1.97;1.00;;;;;;;6.70;100.00;96619.97;5054675;28;20238;-78
2023/12/13 04:10:36;;;;;;;0.90;0.70;;;;;;;6.70;100.00;96617.34;5054262;28;20215;-79
2023/12/13 04:13:02;;;;;;;1.60;0.70;;;;;;;6.68;100.00;96618.44;5053877;28;20229;-79
2023/12/13 04:15:29;;;;;;;0.83;0.70;;;;;;;6.60;100.00;96621.63;5053475;28;20643;-78
2023/12/13 04:17:55;;;;;;;2.20;0.73;;;;;;;6.57;100.00;96618.41;5054672;28;20212;-78
2023/12/13 04:20:21;;;;;;;2.33;1.00;;;;;;;6.54;100.00;96613.41;5054513;28;20211;-79
2023/12/13 04:22:50;;;;;;;4.13;0.90;;;;;;;6.49;100.00;96613.78;5054323;28;20235;-78
2023/12/13 04:25:16;;;;;;;1.10;0.67;;;;;;;6.46;100.00;96614.00;5053795;28;20204;-78
2023/12/13 04:27:45;;;;;;;2.03;0.93;;;;;;;6.42;100.00;96612.56;5053763;28;20703;-79
2023/12/13 04:30:12;;;;;;;0.90;0.90;;;;;;;6.39;100.00;96615.44;5053389;28;20240;-78
2023/12/13 04:32:39;;;;;;;3.30;1.00;;;;;;;6.37;100.00;96614.72;5053325;28;20283;-79
2023/12/13 04:35:06;;;;;;;2.20;1.00;;;;;;;6.39;100.00;96606.72;5053268;28;20217;-78
2023/12/13 04:37:33;;;;;;;1.77;1.00;;;;;;;6.37;100.00;96600.75;5052590;28;20268;-79
2023/12/13 04:40:01;;;;;;;2.97;1.10;;;;;;;6.40;100.00;96603.16;5054140;28;20204;-78
2023/12/13 04:42:27;;;;;;;3.90;1.23;;;;;;;6.47;100.00;96601.72;5054282;28;20599;-78
2023/12/13 04:44:54;;;;;;;3.20;1.30;;;;;;;6.51;100.00;96601.38;5052955;28;20208;-78
2023/12/13 04:47:21;;;;;;;2.07;1.30;;;;;;;6.50;100.00;96607.56;5053517;28;20239;-78
2023/12/13 04:49:47;;;;;;;1.63;1.00;;;;;;;6.49;100.00;96603.28;5053922;28;20204;-78
2023/12/13 04:52:14;;;;;;;1.50;0.90;;;;;;;6.48;100.00;96595.53;5052771;28;20240;-78
2023/12/13 04:54:41;;;;;;;1.77;1.00;;;;;;;6.49;100.00;96592.78;5052318;28;20595;-78
2023/12/13 04:57:09;;;;;;;1.97;1.07;;;;;;;6.50;100.00;96583.94;5053533;28;20236;-80
2023/12/13 04:59:35;;;;;;;2.17;1.10;;;;;;;6.49;100.00;96584.06;5053178;28;20212;-80
2023/12/13 05:02:02;;;;;;;1.33;1.17;;;;;;;6.47;100.00;96581.56;5053044;28;20235;-78
2023/12/13 05:04:28;;;;;;;2.20;1.13;;;;;;;6.48;100.00;96583.22;5052384;28;20813;-78
2023/12/13 05:06:55;;;;;;;3.47;1.30;;;;;;;6.49;100.00;96576.19;5053011;28;20212;-78
2023/12/13 05:09:21;;;;;;;1.20;1.10;;;;;;;6.52;100.00;96574.16;5052946;28;20603;-78
2023/12/13 05:11:48;;;;;;;1.27;1.10;;;;;;;6.58;100.00;96568.44;5052972;28;20224;-78
2023/12/13 05:14:16;;;;;;;2.70;1.10;;;;;;;6.62;100.00;96569.88;5052673;28;20212;-78
2023/12/13 05:16:42;;;;;;;1.57;1.10;;;;;;;6.61;100.00;96564.75;5052848;28;20215;-80
2023/12/13 05:19:09;;;;;;;3.00;1.20;;;;;;;6.55;100.00;96555.56;5053138;28;20697;-80
2023/12/13 05:21:35;;;;;;;3.83;1.17;;;;;;;6.49;100.00;96555.19;5053286;28;20224;-80
2023/12/13 05:24:02;;;;;;;1.47;1.20;;;;;;;6.44;100.00;96559.97;5052506;28;20214;-80
2023/12/13 05:26:29;;;;;;;3.00;1.20;;;;;;;6.45;100.00;96553.75;5053730;28;20636;-78
2023/12/13 05:28:55;;;;;;;4.10;1.47;;;;;;;6.46;100.00;96565.91;5056364;28;20476;-78
2023/12/13 05:31:24;;;;;;;2.63;1.50;;;;;;;6.44;100.00;96563.44;5056379;28;20235;-79
2023/12/13 05:33:51;;;;;;;2.13;1.40;;;;;;;6.45;100.00;96559.00;5056572;28;20200;-80
2023/12/13 05:36:17;;;;;;;1.77;1.10;;;;;;;6.45;100.00;96549.34;5056166;28;20227;-78
2023/12/13 05:38:44;;;;;;;3.93;1.20;;;;;;;6.43;100.00;96543.41;5056634;28;20693;-79
2023/12/13 05:41:10;;;;;;;2.23;1.17;;;;;;;6.42;100.00;96544.34;5056144;28;20269;-79
2023/12/13 05:43:37;;;;;;;2.80;1.23;;;;;;;6.42;100.00;96544.34;5055826;28;20219;-78
2023/12/13 05:46:04;;;;;;;1.10;1.00;;;;;;;6.43;100.00;96542.56;5055987;28;20583;-78
2023/12/13 05:48:32;;;;;;;1.77;1.20;;;;;;;6.41;100.00;96542.66;5056752;28;20597;-78
2023/12/13 05:50:59;;;;;;;1.77;0.90;;;;;;;6.39;100.00;96541.97;5055857;28;20204;-78
2023/12/13 05:53:28;;;;;;;4.80;1.33;;;;;;;6.41;100.00;96531.34;5056304;28;20204;-79
2023/12/13 05:55:55;;;;;;;2.33;1.00;;;;;;;6.43;100.00;96535.53;5055803;28;20208;-79
2023/12/13 05:58:22;;;;;;;2.03;1.03;;;;;;;6.52;100.00;96533.94;5056078;28;20246;-78
2023/12/13 06:00:48;;;;;;;2.97;1.10;;;;;;;6.54;100.00;96525.00;5056359;28;20614;-78
2023/12/13 06:03:15;;;;;;;9.57;1.67;;;;;;;6.51;100.00;96522.63;5056120;28;20250;-80
2023/12/13 06:05:43;;;;;;;1.27;1.00;;;;;;;6.51;100.00;96522.63;5055628;28;20208;-80
2023/12/13 06:08:09;;;;;;;1.60;0.90;;;;;;;6.48;100.00;96525.47;5055457;28;20228;-80
2023/12/13 06:10:36;;;;;;;2.67;0.87;;;;;;;6.45;100.00;96519.66;5055152;28;20212;-78
2023/12/13 06:13:02;;;;;;;1.23;0.90;;;;;;;6.53;100.00;96533.03;5055416;28;20294;-80
2023/12/13 06:15:29;;;;;;;0.70;0.70;;;;;;;6.54;100.00;96529.44;5053856;28;20300;-80
2023/12/13 06:17:55;;;;;;;2.67;1.30;;;;;;;6.59;100.00;96533.34;5055387;28;20215;-80
2023/12/13 06:20:22;;;;;;;2.53;1.13;;;;;;;6.63;100.00;96532.16;5053753;28;20302;-79
2023/12/13 06:22:50;;;;;;;0.93;0.83;;;;;;;6.64;100.00;96528.59;5055187;28;20236;-80
2023/12/13 06:25:17;;;;;;;3.80;1.20;;;;;;;6.69;100.00;96526.44;5054955;28;20215;-80
2023/12/13 06:27:43;;;;;;;1.20;1.10;;;;;;;6.69;100.00;96526.44;5055208;28;20585;-80
2023/12/13 06:30:11;;;;;;;1.50;1.20;;;;;;;6.71;100.00;96531.56;5053477;28;20205;-80
2023/12/13 06:32:37;;;;;;;1.63;1.13;;;;;;;6.69;100.00;96521.19;5053237;28;20278;-78
2023/12/13 06:35:04;;;;;;;1.47;1.00;;;;;;;6.63;100.00;96526.91;5052603;28;20223;-77
2023/12/13 06:37:31;;;;;;;1.63;1.13;;;;;;;6.57;100.00;96519.53;5053462;28;20213;-80
2023/12/13 06:39:59;;;;;;;2.37;1.20;;;;;;;6.55;100.00;96524.06;5053089;28;20207;-77
2023/12/13 06:42:26;;;;;;;1.77;1.10;;;;;;;6.62;100.00;96520.00;5054656;28;20319;-78
2023/12/13 06:44:52;;;;;;;2.27;1.10;;;;;;;6.63;100.00;96519.03;5054236;28;20682;-78
2023/12/13 06:47:19;;;;;;;1.20;1.00;;;;;;;6.63;100.00;96519.03;5055273;28;20208;-78
2023/12/13 06:49:45;;;;;;;1.03;0.80;;;;;;;6.65;100.00;96511.06;5054854;28;20239;-78
2023/12/13 06:52:12;;;;;;;2.00;1.00;;;;;;;6.61;100.00;96515.72;5054177;28;20601;-78
2023/12/13 06:54:38;;;;;;;2.80;1.30;;;;;;;6.65;100.00;96514.50;5054376;28;20587;-79
2023/12/13 06:57:07;;;;;;;3.70;1.20;;;;;;;6.66;100.00;96510.91;5054676;28;20220;-78
2023/12/13 06:59:33;;;;;;;1.50;1.20;;;;;;;6.69;100.00;96510.69;5054095;28;20204;-78
2023/12/13 07:02:00;;;;;;;1.40;1.00;;;;;;;6.66;100.00;96504.84;5053455;28;20232;-78
2023/12/13 07:04:26;;;;;;;2.00;1.07;;;;;;;6.64;100.00;96504.97;5056240;28;20626;-77
2023/12/13 07:06:54;;;;;;;1.93;1.13;;;;;;;6.65;100.00;96508.44;5053232;28;20212;-78
2023/12/13 07:09:20;;;;;;;2.07;1.13;;;;;;;6.59;100.00;96501.88;5053110;28;20240;-78
2023/12/13 07:11:47;;;;;;;3.30;1.10;;;;;;;6.53;100.00;96504.97;5052903;28;20319;-78
2023/12/13 07:14:15;;;;;;;1.93;1.37;;;;;;;6.50;100.00;96502.59;5053193;28;20208;-77
2023/12/13 07:16:42;;;;;;;1.93;1.10;;;;;;;6.49;100.00;96508.81;5052086;28;20204;-78
2023/12/13 07:19:08;;;;;;;1.53;1.30;;;;;;;6.54;100.00;96506.63;5052505;28;20214;-79
2023/12/13 07:21:35;;;;;;;2.23;1.20;;;;;;;6.61;100.00;96507.84;5052742;28;20239;-79
2023/12/13 07:24:01;;;;;;;1.33;1.23;;;;;;;6.68;100.00;96498.53;5052701;28;20204;-79
2023/12/13 07:26:28;;;;;;;2.43;1.50;;;;;;;6.75;100.00;96499.69;5052198;28;20298;-80
2023/12/13 07:28:55;;;;;;;1.60;1.23;;;;;;;6.74;100.00;96495.41;5052722;28;20725;-80
2023/12/13 07:31:23;;;;;;;2.00;1.43;;;;;;;6.76;100.00;96496.13;5052504;28;20312;-76
2023/12/13 07:33:49;;;;;;;2.20;1.10;;;;;;;6.78;100.00;96496.81;5052257;28;20263;-78
2023/12/13 07:36:16;;;;;;;2.17;1.30;;;;;;;6.80;100.00;96501.94;5051972;28;20671;-79
2023/12/13 07:38:43;;;;;;;3.43;1.20;;;;;;;6.80;100.00;96502.78;5052367;28;20204;-78
2023/12/13 07:41:09;;;;;;;1.90;1.50;;;;;;;6.84;100.00;96509.44;5053910;28;20235;-78
2023/12/13 07:43:36;;;;;;;2.80;1.40;;;;;;;6.85;100.00;96495.38;5060859;28;20995;-78
2023/12/13 07:46:03;;;;;;;3.40;1.17;;;;;;;6.86;100.00;96498.84;5070293;28;20211;-80
2023/12/13 07:48:31;;;;;;;2.17;1.07;;;;;;;6.89;100.00;96488.91;5072157;28;20322;-78
2023/12/13 07:50:58;;;;;;;2.10;0.93;;;;;;;6.94;100.00;96494.63;5071752;28;20208;-79
2023/12/13 07:53:24;;;;;;;0.90;0.90;;;;;;;6.96;100.00;96497.97;5070902;28;20215;-79
2023/12/13 07:55:51;;;;;;;1.10;0.93;;;;;;;7.02;100.00;96497.47;5071823;28;20212;-78
2023/12/13 07:58:18;;;;;;;1.37;1.00;;;;;;;7.10;100.00;96495.09;5072477;28;20282;-78
2023/12/13 08:00:44;;;;;;;2.53;1.00;;;;;;;7.11;100.00;96495.91;5072036;28;20252;-78
2023/12/13 08:03:11;;;;;;;0.83;0.83;;;;;;;7.16;100.00;96499.00;5073230;28;20293;-79
2023/12/13 08:05:39;;;;;;;1.00;0.90;;;;;;;7.14;100.00;96501.72;5071993;28;20214;-78
2023/12/13 08:08:05;;;;;;;2.60;0.80;;;;;;;7.19;100.00;96494.31;5072038;28;20215;-78
2023/12/13 08:10:32;;;;;;;1.30;0.80;;;;;;;7.19;100.00;96499.56;5072680;28;20218;-78
2023/12/13 08:12:58;;;;;;;3.90;1.07;;;;;;;7.20;100.00;96503.88;5072073;28;20595;-78
2023/12/13 08:15:24;;;;;;;0.80;0.80;;;;;;;7.24;100.00;96505.28;5070394;28;20204;-78
2023/12/13 08:17:51;;;;;;;1.10;0.85;;;;;;;7.28;100.00;96515.41;5071071;28;20430;-80
2023/12/13 08:20:17;;;;;;;1.73;1.00;;;;;;;7.25;100.00;96509.56;5071824;28;20203;-80
2023/12/13 08:22:46;;;;;;;2.20;1.00;;;;;;;7.31;100.00;96511.72;5072248;28;20291;-80
2023/12/13 08:25:12;;;;;;;1.30;0.80;;;;;;;7.33;100.00;96517.66;5071659;28;20211;-75
2023/12/13 08:27:39;;;;;;;1.47;0.90;;;;;;;7.34;100.00;96514.09;5072796;28;20212;-82
2023/12/13 08:30:07;;;;;;;1.23;0.80;;;;;;;7.38;100.00;96509.44;5074060;28;20713;-79
2023/12/13 08:32:33;;;;;;;1.80;0.90;;;;;;;7.38;100.00;96515.50;5071910;28;20234;-79
2023/12/13 08:35:00;;;;;;;1.47;0.80;;;;;;;7.37;100.00;96516.47;5070919;28;20234;-78
2023/12/13 08:37:26;;;;;;;1.53;0.67;;;;;;;7.40;100.00;96513.56;5071540;28;20697;-78
2023/12/13 08:39:54;;;;;;;1.07;0.70;;;;;;;7.39;100.00;96519.78;5071705;28;20560;-77
2023/12/13 08:42:20;;;;;;;1.33;0.70;;;;;;;7.38;100.00;96519.94;5071415;28;20230;-79
2023/12/13 08:44:47;;;;;;;2.00;0.80;;;;;;;7.40;100.00;96518.81;5070892;28;20590;-78
2023/12/13 08:47:14;;;;;;;1.47;0.60;;;;;;;7.42;100.00;96519.56;5070813;28;20218;-77
2023/12/13 08:49:41;;;;;;;0.70;0.70;;;;;;;7.46;100.00;96515.69;5071592;28;20273;-77
2023/12/13 08:52:07;;;;;;;1.37;0.90;;;;;;;7.47;100.00;96510.31;5071046;28;20234;-77
2023/12/13 08:54:34;;;;;;;1.73;0.83;;;;;;;7.50;100.00;96509.22;5070725;28;20321;-79
2023/12/13 08:57:01;;;;;;;0.93;0.60;;;;;;;7.53;100.00;96509.81;5071209;28;20213;-79
2023/12/13 08:59:28;;;;;;;1.17;0.60;;;;;;;7.57;100.00;96502.50;5071732;28;20200;-78
2023/12/13 09:01:54;;;;;;;1.13;0.70;;;;;;;7.61;100.00;96509.19;5074296;28;20227;-77
2023/12/13 09:04:21;;;;;;;1.10;0.80;;;;;;;7.62;100.00;96508.22;5073794;28;20460;-78
2023/12/13 09:06:47;;;;;;;2.40;0.97;;;;;;;7.70;100.00;96498.72;5073657;28;20442;-80
2023/12/13 09:09:14;;;;;;;1.87;0.77;;;;;;;7.74;100.00;96501.94;5074995;28;20239;-79
2023/12/13 09:11:40;;;;;;;4.60;1.07;;;;;;;7.82;100.00;96502.97;5074342;28;20232;-79
2023/12/13 09:14:09;;;;;;;1.17;1.00;;;;;;;7.91;100.00;96504.00;5073406;28;20682;-80
2023/12/13 09:16:36;;;;;;;2.03;1.20;;;;;;;8.02;100.00;96506.56;5074670;28;20573;-80
2023/12/13 09:19:02;;;;;;;0.83;0.73;;;;;;;8.05;100.00;96507.13;5074898;28;20213;-78
2023/12/13 09:21:29;;;;;;;1.93;1.00;;;;;;;8.12;100.00;96508.28;5076219;28;20232;-78
2023/12/13 09:23:55;;;;;;;2.37;1.10;;;;;;;8.20;100.00;96512.94;5075029;28;20589;-78
2023/12/13 09:26:22;;;;;;;0.80;0.80;;;;;;;8.26;100.00;96509.78;5075477;28;20205;-78
2023/12/13 09:28:48;;;;;;;1.33;0.90;;;;;;;8.34;100.00;96504.66;5075826;28;20232;-78
2023/12/13 09:31:17;;;;;;;1.77;1.17;;;;;;;8.39;100.00;96510.38;5075290;28;20229;-78
2023/12/13 09:33:43;;;;;;;1.20;0.80;;;;;;;8.39;100.00;96515.66;5075133;28;20215;-78
2023/12/13 09:36:10;;;;;;;1.33;1.00;;;;;;;8.42;100.00;96518.00;5074973;28;20667;-78
2023/12/13 09:38:37;;;;;;;1.80;0.80;;;;;;;8.46;100.00;96514.97;5075254;28;20588;-78
2023/12/13 09:41:05;;;;;;;1.13;0.80;;;;;;;8.39;100.00;96528.81;5074894;28;20585;-78
2023/12/13 09:43:34;;;;;;;3.03;1.00;;;;;;;8.36;100.00;96532.53;5074711;28;20219;-78
2023/12/13 09:46:01;;;;;;;2.57;1.00;;;;;;;8.37;100.00;96543.88;5074341;28;20216;-78
2023/12/13 09:48:31;;;;;;;1.00;0.70;;;;;;;8.39;100.00;96547.22;5074961;28;20582;-79
2023/12/13 09:50:58;;;;;;;1.90;1.00;;;;;;;8.43;100.00;96548.63;5075002;28;20239;-77
2023/12/13 09:53:27;;;;;;;2.73;1.60;;;;;;;8.48;100.00;96551.69;5074428;28;20205;-77
2023/12/13 09:55:54;;;;;;;2.13;1.10;;;;;;;8.51;100.00;96556.72;5074449;28;20215;-77
2023/12/13 09:58:21;;;;;;;1.00;0.87;;;;;;;8.44;100.00;96560.84;5076082;28;20205;-80
2023/12/13 10:00:47;;;;;;;1.97;0.80;;;;;;;8.45;100.00;96551.97;5076795;28;20204;-79
2023/12/13 10:03:14;;;;;;;1.83;0.90;;;;;;;8.45;100.00;96562.50;5077455;28;20222;-79
2023/12/13 10:05:44;;;;;;;1.23;1.00;;;;;;;8.41;100.00;96558.44;5076190;28;20577;-79
2023/12/13 10:08:11;;;;;;;1.77;0.90;;;;;;;8.38;100.00;96562.19;5075874;28;20565;-84
2023/12/13 10:10:38;;;;;;;1.60;1.10;;;;;;;8.39;100.00;96569.09;5075960;28;20231;-78
2023/12/13 10:13:06;;;;;;;3.30;1.13;;;;;;;8.34;100.00;96568.66;5075060;28;20598;-80
2023/12/13 10:15:33;;;;;;;2.03;1.00;;;;;;;8.34;100.00;96568.66;5074657;28;20203;-79
2023/12/13 10:18:00;;;;;;;1.77;1.10;;;;;;;8.41;100.00;96561.09;5074266;28;20320;-77
2023/12/13 10:20:27;;;;;;;1.43;0.97;;;;;;;8.43;100.00;96559.16;5074759;28;20276;-78
2023/12/13 10:22:55;;;;;;;1.03;0.90;;;;;;;8.46;100.00;96553.63;5075193;28;20237;-78
2023/12/13 10:25:22;;;;;;;1.20;0.80;;;;;;;8.48;100.00;96546.44;5074607;28;20213;-78
2023/12/13 10:27:49;;;;;;;1.00;0.90;;;;;;;8.54;100.00;96540.63;5075252;28;20217;-78
2023/12/13 10:30:16;;;;;;;1.38;1.27;;;;;;;8.67;100.00;96538.59;5074227;28;20457;-78
2023/12/13 10:32:42;;;;;;;2.83;1.63;;;;;;;8.71;100.00;96537.38;5074544;28;20245;-78
2023/12/13 10:35:09;;;;;;;2.03;1.40;;;;;;;8.75;100.00;96544.06;5074646;28;20555;-78
2023/12/13 10:37:36;;;;;;;1.63;1.20;;;;;;;8.81;100.00;96533.81;5074976;28;20251;-78
2023/12/13 10:40:06;;;;;;;1.30;1.00;;;;;;;8.85;100.00;96534.38;5074769;28;20217;-78
2023/12/13 10:42:37;;;;;;;1.10;1.00;;;;;;;8.85;100.00;96526.47;5075130;28;20229;-78
2023/12/13 10:45:06;;;;;;;1.50;0.93;;;;;;;8.90;100.00;96529.53;5074603;28;20216;-78
2023/12/13 10:47:36;;;;;;;2.83;1.03;;;;;;;8.99;100.00;96520.84;5074178;28;20208;-78
2023/12/13 10:50:04;;;;;;;1.10;0.87;;;;;;;9.03;100.00;96522.22;5074829;28;20237;-78
2023/12/13 10:52:36;;;;;;;1.00;0.90;;;;;;;9.03;100.00;96519.59;5075656;28;20256;-81
2023/12/13 10:55:03;;;;;;;1.90;1.13;;;;;;;9.12;100.00;96518.78;5074142;28;20257;-78
2023/12/13 10:57:31;;;;;;;1.57;0.90;;;;;;;9.21;100.00;96526.72;5074214;28;20276;-78
2023/12/13 10:59:58;;;;;;;0.83;0.83;;;;;;;9.33;100.00;96532.69;5073006;28;20215;-77
2023/12/13 11:02:28;;;;;;;2.58;1.00;;;;;;;9.45;100.00;96524.50;5073107;28;20434;-78
2023/12/13 11:04:55;;;;;;;1.83;0.80;;;;;;;9.50;100.00;96526.72;5073450;28;20208;-79
2023/12/13 11:07:21;;;;;;;3.30;1.20;;;;;;;9.54;100.00;96522.84;5073799;28;20203;-78
2023/12/13 11:09:52;;;;;;;1.07;0.90;;;;;;;9.49;100.00;96530.34;5073487;28;20230;-79
2023/12/13 11:12:19;;;;;;;2.80;1.00;;;;;;;9.53;100.00;96529.91;5074129;28;20227;-78
2023/12/13 11:14:50;;;;;;;3.70;1.37;;;;;;;9.55;100.00;96529.78;5073718;28;20217;-79
2023/12/13 11:17:18;;;;;;;1.27;0.90;;;;;;;9.61;100.00;96529.25;5073568;28;20732;-79
2023/12/13 11:19:45;;;;;;;3.37;0.90;;;;;;;9.71;100.00;96528.25;5075236;28;20199;-80
2023/12/13 11:22:12;;;;;;;2.27;1.00;;;;;;;9.73;100.00;96533.41;5074742;28;20231;-80
2023/12/13 11:24:40;;;;;;;1.70;1.10;;;;;;;9.82;100.00;96528.13;5073358;28;20262;-80
2023/12/13 11:27:10;;;;;;;1.23;0.73;;;;;;;9.85;100.00;96527.00;5073905;28;20233;-79
2023/12/13 11:29:37;;;;;;;1.43;1.07;;;;;;;9.92;100.00;96534.19;5074663;28;20231;-79
2023/12/13 11:32:05;;;;;;;1.70;0.90;;;;;;;9.99;100.00;96518.66;5074283;28;20246;-80